sensor_id;sensor_type;location;lat;lon;timestamp;temperature;humidity
52621;DHT22;38515;53.160;6.990;2023-11-22T00:01:06;2.30;99.90
52621;DHT22;38515;53.160;6.990;2023-11-22T00:03:32;1.80;1.00
52621;DHT22;38515;53.160;6.990;2023-11-22T00:05:58;1.60;99.90
52621;DHT22;38515;53.160;6.990;2023-11-22T00:08:24;1.70;99.90
52621;DHT22;38515;53.160;6.990;2023-11-22T00:10:50;1.50;1.00
52621;DHT22;38515;53.160;6.990;2023-11-22T00:13:15;1.60;96.50
52621;DHT22;38515;53.160;6.990;2023-11-22T00:15:41;1.50;99.90
52621;DHT22;38515;53.160;6.990;2023-11-22T00:18:07;1.60;99.90
52621;DHT22;38515;53.160;6.990;2023-11-22T00:20:33;1.60;99.90
52621;DHT22;38515;53.160;6.990;2023-11-22T00:22:59;1.30;1.00
52621;DHT22;38515;53.160;6.990;2023-11-22T00:25:25;1.40;1.00
52621;DHT22;38515;53.160;6.990;2023-11-22T00:27:51;1.00;97.10
52621;DHT22;38515;53.160;6.990;2023-11-22T00:30:17;1.30;1.00
52621;DHT22;38515;53.160;6.990;2023-11-22T00:32:43;1.30;35.10
52621;DHT22;38515;53.160;6.990;2023-11-22T00:35:09;1.20;20.90
52621;DHT22;38515;53.160;6.990;2023-11-22T00:37:35;1.10;1.00
52621;DHT22;38515;53.160;6.990;2023-11-22T00:40:01;0.40;1.00
52621;DHT22;38515;53.160;6.990;2023-11-22T00:42:40;1.80;1.00
52621;DHT22;38515;53.160;6.990;2023-11-22T00:45:09;0.90;99.90
52621;DHT22;38515;53.160;6.990;2023-11-22T00:47:36;1.00;1.00
52621;DHT22;38515;53.160;6.990;2023-11-22T00:50:02;0.70;2.30
52621;DHT22;38515;53.160;6.990;2023-11-22T00:52:30;-0.30;99.90
52621;DHT22;38515;53.160;6.990;2023-11-22T00:54:57;0.90;1.00
52621;DHT22;38515;53.160;6.990;2023-11-22T00:57:23;0.80;70.70
52621;DHT22;38515;53.160;6.990;2023-11-22T00:59:48;0.10;1.00
52621;DHT22;38515;53.160;6.990;2023-11-22T01:02:15;0.80;1.00
52621;DHT22;38515;53.160;6.990;2023-11-22T01:04:41;0.20;85.20
52621;DHT22;38515;53.160;6.990;2023-11-22T01:07:07;0.80;1.00
52621;DHT22;38515;53.160;6.990;2023-11-22T01:09:33;0.90;99.90
52621;DHT22;38515;53.160;6.990;2023-11-22T01:12:00;0.80;99.90
52621;DHT22;38515;53.160;6.990;2023-11-22T01:14:26;0.90;99.90
52621;DHT22;38515;53.160;6.990;2023-11-22T01:16:53;0.90;99.90
52621;DHT22;38515;53.160;6.990;2023-11-22T01:19:20;0.80;99.90
52621;DHT22;38515;53.160;6.990;2023-11-22T01:21:46;0.40;99.90
52621;DHT22;38515;53.160;6.990;2023-11-22T01:24:12;0.60;1.00
52621;DHT22;38515;53.160;6.990;2023-11-22T01:26:38;0.30;1.00
52621;DHT22;38515;53.160;6.990;2023-11-22T01:29:05;0.10;99.90
52621;DHT22;38515;53.160;6.990;2023-11-22T01:31:31;0.60;1.00
52621;DHT22;38515;53.160;6.990;2023-11-22T01:33:58;0.60;99.90
52621;DHT22;38515;53.160;6.990;2023-11-22T01:36:24;0.60;99.90
52621;DHT22;38515;53.160;6.990;2023-11-22T01:38:51;0.50;99.90
52621;DHT22;38515;53.160;6.990;2023-11-22T01:41:18;-0.10;99.90
52621;DHT22;38515;53.160;6.990;2023-11-22T01:43:43;0.20;1.00
52621;DHT22;38515;53.160;6.990;2023-11-22T01:46:13;0.30;90.70
52621;DHT22;38515;53.160;6.990;2023-11-22T01:48:45;0.20;93.30
52621;DHT22;38515;53.160;6.990;2023-11-22T01:51:10;-0.10;1.00
52621;DHT22;38515;53.160;6.990;2023-11-22T01:53:36;0.10;1.00
52621;DHT22;38515;53.160;6.990;2023-11-22T01:56:02;0.30;99.90
52621;DHT22;38515;53.160;6.990;2023-11-22T01:58:28;0.20;99.90
52621;DHT22;38515;53.160;6.990;2023-11-22T02:00:54;-1.30;99.90
52621;DHT22;38515;53.160;6.990;2023-11-22T02:03:20;0.70;99.90
52621;DHT22;38515;53.160;6.990;2023-11-22T02:05:46;0.80;1.00
52621;DHT22;38515;53.160;6.990;2023-11-22T02:08:12;0.20;99.90
52621;DHT22;38515;53.160;6.990;2023-11-22T02:10:39;0.10;1.00
52621;DHT22;38515;53.160;6.990;2023-11-22T02:13:06;0.10;99.90
52621;DHT22;38515;53.160;6.990;2023-11-22T02:15:34;-0.20;99.90
52621;DHT22;38515;53.160;6.990;2023-11-22T02:18:00;0.20;1.00
52621;DHT22;38515;53.160;6.990;2023-11-22T02:20:26;-0.10;99.90
52621;DHT22;38515;53.160;6.990;2023-11-22T02:22:53;0.20;47.30
52621;DHT22;38515;53.160;6.990;2023-11-22T02:25:19;1.90;99.90
52621;DHT22;38515;53.160;6.990;2023-11-22T02:27:45;-0.80;99.90
52621;DHT22;38515;53.160;6.990;2023-11-22T02:30:13;0.10;99.90
52621;DHT22;38515;53.160;6.990;2023-11-22T02:32:39;0.20;99.90
52621;DHT22;38515;53.160;6.990;2023-11-22T02:35:05;0.20;99.90
52621;DHT22;38515;53.160;6.990;2023-11-22T02:37:34;0.40;99.90
52621;DHT22;38515;53.160;6.990;2023-11-22T02:40:18;0.00;1.00
52621;DHT22;38515;53.160;6.990;2023-11-22T02:42:48;-1.40;1.00
52621;DHT22;38515;53.160;6.990;2023-11-22T02:45:28;0.00;44.80
52621;DHT22;38515;53.160;6.990;2023-11-22T02:47:54;0.00;99.90
52621;DHT22;38515;53.160;6.990;2023-11-22T02:50:20;0.10;99.90
52621;DHT22;38515;53.160;6.990;2023-11-22T02:52:46;-0.10;99.90
52621;DHT22;38515;53.160;6.990;2023-11-22T02:55:12;-0.30;99.90
52621;DHT22;38515;53.160;6.990;2023-11-22T02:57:38;0.90;99.90
52621;DHT22;38515;53.160;6.990;2023-11-22T03:00:09;-0.20;99.90
52621;DHT22;38515;53.160;6.990;2023-11-22T03:02:39;0.40;99.90
52621;DHT22;38515;53.160;6.990;2023-11-22T03:05:08;2.40;1.00
52621;DHT22;38515;53.160;6.990;2023-11-22T03:07:35;0.10;99.90
52621;DHT22;38515;53.160;6.990;2023-11-22T03:10:02;-0.60;99.90
52621;DHT22;38515;53.160;6.990;2023-11-22T03:12:28;-0.50;99.90
52621;DHT22;38515;53.160;6.990;2023-11-22T03:14:54;0.00;99.90
52621;DHT22;38515;53.160;6.990;2023-11-22T03:17:24;-0.20;99.90
52621;DHT22;38515;53.160;6.990;2023-11-22T03:19:50;-0.50;99.90
52621;DHT22;38515;53.160;6.990;2023-11-22T03:22:17;-0.30;1.00
52621;DHT22;38515;53.160;6.990;2023-11-22T03:24:43;0.10;99.90
52621;DHT22;38515;53.160;6.990;2023-11-22T03:27:08;0.30;99.90
52621;DHT22;38515;53.160;6.990;2023-11-22T03:29:37;-0.20;55.80
52621;DHT22;38515;53.160;6.990;2023-11-22T03:32:03;-1.40;99.90
52621;DHT22;38515;53.160;6.990;2023-11-22T03:34:32;-0.10;99.90
52621;DHT22;38515;53.160;6.990;2023-11-22T03:36:58;0.20;99.90
52621;DHT22;38515;53.160;6.990;2023-11-22T03:39:24;0.50;99.90
52621;DHT22;38515;53.160;6.990;2023-11-22T03:41:50;-0.10;99.90
52621;DHT22;38515;53.160;6.990;2023-11-22T03:44:16;-1.40;1.00
52621;DHT22;38515;53.160;6.990;2023-11-22T03:46:43;-1.10;1.00
52621;DHT22;38515;53.160;6.990;2023-11-22T03:49:09;1.20;1.00
52621;DHT22;38515;53.160;6.990;2023-11-22T03:51:36;0.00;99.90
52621;DHT22;38515;53.160;6.990;2023-11-22T03:54:02;-0.10;1.00
52621;DHT22;38515;53.160;6.990;2023-11-22T03:56:29;0.80;1.00
52621;DHT22;38515;53.160;6.990;2023-11-22T03:58:55;0.20;99.90
52621;DHT22;38515;53.160;6.990;2023-11-22T04:01:21;0.70;1.00
52621;DHT22;38515;53.160;6.990;2023-11-22T04:03:48;0.20;99.90
52621;DHT22;38515;53.160;6.990;2023-11-22T04:06:17;0.30;1.00
52621;DHT22;38515;53.160;6.990;2023-11-22T04:08:45;0.20;1.00
52621;DHT22;38515;53.160;6.990;2023-11-22T04:11:15;-0.80;1.00
52621;DHT22;38515;53.160;6.990;2023-11-22T04:13:42;0.70;1.00
52621;DHT22;38515;53.160;6.990;2023-11-22T04:16:08;0.10;1.00
52621;DHT22;38515;53.160;6.990;2023-11-22T04:18:35;0.10;99.90
52621;DHT22;38515;53.160;6.990;2023-11-22T04:21:04;0.00;99.90
52621;DHT22;38515;53.160;6.990;2023-11-22T04:23:33;-0.40;99.90
52621;DHT22;38515;53.160;6.990;2023-11-22T04:26:00;0.20;99.90
52621;DHT22;38515;53.160;6.990;2023-11-22T04:28:30;0.30;99.90
52621;DHT22;38515;53.160;6.990;2023-11-22T04:30:56;0.00;99.90
52621;DHT22;38515;53.160;6.990;2023-11-22T04:33:23;-0.30;99.90
52621;DHT22;38515;53.160;6.990;2023-11-22T04:35:49;0.00;13.20
52621;DHT22;38515;53.160;6.990;2023-11-22T04:38:18;-0.10;99.90
52621;DHT22;38515;53.160;6.990;2023-11-22T04:40:45;-0.20;99.90
52621;DHT22;38515;53.160;6.990;2023-11-22T04:43:11;0.00;99.90
52621;DHT22;38515;53.160;6.990;2023-11-22T04:45:37;0.20;1.00
52621;DHT22;38515;53.160;6.990;2023-11-22T04:48:04;-0.20;1.00
52621;DHT22;38515;53.160;6.990;2023-11-22T04:50:33;-0.50;36.80
52621;DHT22;38515;53.160;6.990;2023-11-22T04:52:59;-1.20;1.00
52621;DHT22;38515;53.160;6.990;2023-11-22T04:55:27;1.60;1.00
52621;DHT22;38515;53.160;6.990;2023-11-22T04:57:54;0.00;99.90
52621;DHT22;38515;53.160;6.990;2023-11-22T05:00:21;-1.30;1.00
52621;DHT22;38515;53.160;6.990;2023-11-22T05:02:48;-0.20;99.90
52621;DHT22;38515;53.160;6.990;2023-11-22T05:05:14;-0.30;99.90
52621;DHT22;38515;53.160;6.990;2023-11-22T05:07:40;-0.20;99.90
52621;DHT22;38515;53.160;6.990;2023-11-22T05:10:06;-0.20;99.90
52621;DHT22;38515;53.160;6.990;2023-11-22T05:12:35;2.40;1.00
52621;DHT22;38515;53.160;6.990;2023-11-22T05:15:02;-0.90;99.90
52621;DHT22;38515;53.160;6.990;2023-11-22T05:17:28;-0.20;56.50
52621;DHT22;38515;53.160;6.990;2023-11-22T05:19:54;-1.40;99.90
52621;DHT22;38515;53.160;6.990;2023-11-22T05:22:20;-0.30;99.90
52621;DHT22;38515;53.160;6.990;2023-11-22T05:27:13;-0.20;1.00
52621;DHT22;38515;53.160;6.990;2023-11-22T05:29:39;-0.20;99.90
52621;DHT22;38515;53.160;6.990;2023-11-22T05:32:05;-0.30;99.90
52621;DHT22;38515;53.160;6.990;2023-11-22T05:34:32;1.00;1.00
52621;DHT22;38515;53.160;6.990;2023-11-22T05:36:58;-0.40;99.90
52621;DHT22;38515;53.160;6.990;2023-11-22T05:39:24;-1.80;1.00
52621;DHT22;38515;53.160;6.990;2023-11-22T05:41:51;1.40;1.00
52621;DHT22;38515;53.160;6.990;2023-11-22T05:44:17;-0.40;99.90
52621;DHT22;38515;53.160;6.990;2023-11-22T05:46:43;-0.50;99.90
52621;DHT22;38515;53.160;6.990;2023-11-22T05:49:09;-0.40;99.90
52621;DHT22;38515;53.160;6.990;2023-11-22T05:51:36;-0.40;99.90
52621;DHT22;38515;53.160;6.990;2023-11-22T05:54:06;-0.40;1.00
52621;DHT22;38515;53.160;6.990;2023-11-22T05:56:32;-0.40;1.00
52621;DHT22;38515;53.160;6.990;2023-11-22T05:58:58;-0.50;1.00
52621;DHT22;38515;53.160;6.990;2023-11-22T06:01:25;-0.50;1.00
52621;DHT22;38515;53.160;6.990;2023-11-22T06:03:52;-0.30;1.00
52621;DHT22;38515;53.160;6.990;2023-11-22T06:06:18;-0.40;99.90
52621;DHT22;38515;53.160;6.990;2023-11-22T06:08:47;-0.40;99.90
52621;DHT22;38515;53.160;6.990;2023-11-22T06:11:13;-0.10;1.00
52621;DHT22;38515;53.160;6.990;2023-11-22T06:13:41;-0.40;99.90
52621;DHT22;38515;53.160;6.990;2023-11-22T06:16:08;-0.60;99.90
52621;DHT22;38515;53.160;6.990;2023-11-22T06:18:35;-0.40;99.90
52621;DHT22;38515;53.160;6.990;2023-11-22T06:21:06;-0.70;1.00
52621;DHT22;38515;53.160;6.990;2023-11-22T06:23:33;0.00;1.00
52621;DHT22;38515;53.160;6.990;2023-11-22T06:25:58;-0.40;1.00
52621;DHT22;38515;53.160;6.990;2023-11-22T06:28:24;-0.50;99.90
52621;DHT22;38515;53.160;6.990;2023-11-22T06:30:50;-1.50;1.00
52621;DHT22;38515;53.160;6.990;2023-11-22T06:33:16;-0.50;99.90
52621;DHT22;38515;53.160;6.990;2023-11-22T06:35:42;-0.40;1.00
52621;DHT22;38515;53.160;6.990;2023-11-22T06:38:08;-0.50;1.00
52621;DHT22;38515;53.160;6.990;2023-11-22T06:40:35;-0.40;1.00
52621;DHT22;38515;53.160;6.990;2023-11-22T06:43:01;0.00;1.00
52621;DHT22;38515;53.160;6.990;2023-11-22T06:45:30;-0.40;1.00
52621;DHT22;38515;53.160;6.990;2023-11-22T06:47:57;0.50;1.00
52621;DHT22;38515;53.160;6.990;2023-11-22T06:50:24;0.30;1.00
52621;DHT22;38515;53.160;6.990;2023-11-22T06:52:50;-0.10;1.00
52621;DHT22;38515;53.160;6.990;2023-11-22T06:55:18;-0.70;32.00
52621;DHT22;38515;53.160;6.990;2023-11-22T06:57:44;-0.20;81.70
52621;DHT22;38515;53.160;6.990;2023-11-22T07:00:11;0.50;91.50
52621;DHT22;38515;53.160;6.990;2023-11-22T07:02:38;-0.20;1.00
52621;DHT22;38515;53.160;6.990;2023-11-22T07:05:04;-0.30;76.60
52621;DHT22;38515;53.160;6.990;2023-11-22T07:07:39;-1.20;99.90
52621;DHT22;38515;53.160;6.990;2023-11-22T07:10:06;-0.20;1.00
52621;DHT22;38515;53.160;6.990;2023-11-22T07:12:35;-0.20;99.90
52621;DHT22;38515;53.160;6.990;2023-11-22T07:15:01;-0.40;1.00
52621;DHT22;38515;53.160;6.990;2023-11-22T07:17:28;-0.70;1.00
52621;DHT22;38515;53.160;6.990;2023-11-22T07:19:54;-1.10;1.00
52621;DHT22;38515;53.160;6.990;2023-11-22T07:22:21;-0.60;99.90
52621;DHT22;38515;53.160;6.990;2023-11-22T07:24:49;-0.10;1.00
52621;DHT22;38515;53.160;6.990;2023-11-22T07:27:20;-1.10;99.90
52621;DHT22;38515;53.160;6.990;2023-11-22T07:29:46;0.70;73.30
52621;DHT22;38515;53.160;6.990;2023-11-22T07:32:12;-0.50;99.90
52621;DHT22;38515;53.160;6.990;2023-11-22T07:34:39;0.10;99.90
52621;DHT22;38515;53.160;6.990;2023-11-22T07:37:06;-0.30;99.90
52621;DHT22;38515;53.160;6.990;2023-11-22T07:39:33;1.30;99.90
52621;DHT22;38515;53.160;6.990;2023-11-22T07:42:04;0.40;99.90
52621;DHT22;38515;53.160;6.990;2023-11-22T07:44:34;0.40;1.00
52621;DHT22;38515;53.160;6.990;2023-11-22T07:47:02;0.20;99.90
52621;DHT22;38515;53.160;6.990;2023-11-22T07:49:27;0.40;99.90
52621;DHT22;38515;53.160;6.990;2023-11-22T07:51:54;2.20;1.00
52621;DHT22;38515;53.160;6.990;2023-11-22T07:54:22;2.50;1.00
52621;DHT22;38515;53.160;6.990;2023-11-22T07:56:49;1.00;99.90
52621;DHT22;38515;53.160;6.990;2023-11-22T07:59:15;0.60;99.90
52621;DHT22;38515;53.160;6.990;2023-11-22T08:01:44;0.60;1.00
52621;DHT22;38515;53.160;6.990;2023-11-22T08:04:11;1.30;1.00
52621;DHT22;38515;53.160;6.990;2023-11-22T08:06:37;0.80;99.90
52621;DHT22;38515;53.160;6.990;2023-11-22T08:09:04;0.90;1.00
52621;DHT22;38515;53.160;6.990;2023-11-22T08:11:30;0.90;99.90
52621;DHT22;38515;53.160;6.990;2023-11-22T08:13:57;1.00;1.00
52621;DHT22;38515;53.160;6.990;2023-11-22T08:16:28;0.90;1.00
52621;DHT22;38515;53.160;6.990;2023-11-22T08:18:54;1.10;1.00
52621;DHT22;38515;53.160;6.990;2023-11-22T08:21:21;1.10;1.00
52621;DHT22;38515;53.160;6.990;2023-11-22T08:23:47;1.90;1.00
52621;DHT22;38515;53.160;6.990;2023-11-22T08:26:12;1.10;1.00
52621;DHT22;38515;53.160;6.990;2023-11-22T08:28:41;1.40;30.60
52621;DHT22;38515;53.160;6.990;2023-11-22T08:31:07;1.90;99.90
52621;DHT22;38515;53.160;6.990;2023-11-22T08:33:39;1.30;99.90
52621;DHT22;38515;53.160;6.990;2023-11-22T08:36:06;1.20;77.00
52621;DHT22;38515;53.160;6.990;2023-11-22T08:38:33;1.30;1.00
52621;DHT22;38515;53.160;6.990;2023-11-22T08:41:06;2.60;93.20
52621;DHT22;38515;53.160;6.990;2023-11-22T08:43:33;1.40;1.00
52621;DHT22;38515;53.160;6.990;2023-11-22T08:45:59;2.80;66.80
52621;DHT22;38515;53.160;6.990;2023-11-22T08:48:26;1.50;1.00
52621;DHT22;38515;53.160;6.990;2023-11-22T08:50:52;1.50;65.70
52621;DHT22;38515;53.160;6.990;2023-11-22T08:53:19;0.90;99.90
52621;DHT22;38515;53.160;6.990;2023-11-22T08:55:47;1.60;1.00
52621;DHT22;38515;53.160;6.990;2023-11-22T08:58:13;1.70;99.90
52621;DHT22;38515;53.160;6.990;2023-11-22T09:00:40;1.70;99.90
52621;DHT22;38515;53.160;6.990;2023-11-22T09:03:10;3.10;99.90
52621;DHT22;38515;53.160;6.990;2023-11-22T09:05:42;1.80;1.00
52621;DHT22;38515;53.160;6.990;2023-11-22T09:08:08;1.80;99.90
52621;DHT22;38515;53.160;6.990;2023-11-22T09:10:39;1.80;99.90
52621;DHT22;38515;53.160;6.990;2023-11-22T09:13:05;0.90;99.90
52621;DHT22;38515;53.160;6.990;2023-11-22T09:15:31;2.00;84.50
52621;DHT22;38515;53.160;6.990;2023-11-22T09:17:59;2.00;99.90
52621;DHT22;38515;53.160;6.990;2023-11-22T09:20:25;2.10;90.10
52621;DHT22;38515;53.160;6.990;2023-11-22T09:22:52;2.00;8.10
52621;DHT22;38515;53.160;6.990;2023-11-22T09:25:20;2.10;99.90
52621;DHT22;38515;53.160;6.990;2023-11-22T09:27:48;1.90;99.90
52621;DHT22;38515;53.160;6.990;2023-11-22T09:30:21;2.10;59.10
52621;DHT22;38515;53.160;6.990;2023-11-22T09:33:09;2.10;99.90
52621;DHT22;38515;53.160;6.990;2023-11-22T09:35:36;2.20;99.90
52621;DHT22;38515;53.160;6.990;2023-11-22T09:38:06;3.20;99.90
52621;DHT22;38515;53.160;6.990;2023-11-22T09:40:48;2.20;99.90
52621;DHT22;38515;53.160;6.990;2023-11-22T09:43:16;2.30;99.90
52621;DHT22;38515;53.160;6.990;2023-11-22T09:45:49;2.30;99.90
52621;DHT22;38515;53.160;6.990;2023-11-22T09:48:17;2.30;99.90
52621;DHT22;38515;53.160;6.990;2023-11-22T09:53:40;2.50;99.90
52621;DHT22;38515;53.160;6.990;2023-11-22T09:56:07;2.00;1.00
52621;DHT22;38515;53.160;6.990;2023-11-22T09:58:35;2.50;1.00
52621;DHT22;38515;53.160;6.990;2023-11-22T10:01:02;2.60;99.90
52621;DHT22;38515;53.160;6.990;2023-11-22T10:03:41;2.70;99.90
52621;DHT22;38515;53.160;6.990;2023-11-22T10:06:08;2.70;99.90
52621;DHT22;38515;53.160;6.990;2023-11-22T10:08:34;2.70;1.00
52621;DHT22;38515;53.160;6.990;2023-11-22T10:11:01;2.80;99.90
52621;DHT22;38515;53.160;6.990;2023-11-22T10:13:27;3.20;99.90
52621;DHT22;38515;53.160;6.990;2023-11-22T10:15:53;2.90;1.00
52621;DHT22;38515;53.160;6.990;2023-11-22T10:18:20;3.00;97.30
52621;DHT22;38515;53.160;6.990;2023-11-22T10:20:50;3.10;99.90
52621;DHT22;38515;53.160;6.990;2023-11-22T10:23:19;3.10;99.90
52621;DHT22;38515;53.160;6.990;2023-11-22T10:25:52;3.20;99.90
52621;DHT22;38515;53.160;6.990;2023-11-22T10:28:22;3.20;94.90
52621;DHT22;38515;53.160;6.990;2023-11-22T10:30:51;3.30;78.00
52621;DHT22;38515;53.160;6.990;2023-11-22T10:33:18;3.30;80.80
52621;DHT22;38515;53.160;6.990;2023-11-22T10:35:49;2.80;99.90
52621;DHT22;38515;53.160;6.990;2023-11-22T10:38:17;3.40;1.00
52621;DHT22;38515;53.160;6.990;2023-11-22T10:40:44;3.50;34.00
52621;DHT22;38515;53.160;6.990;2023-11-22T10:43:12;3.50;1.00
52621;DHT22;38515;53.160;6.990;2023-11-22T10:45:38;3.60;1.00
52621;DHT22;38515;53.160;6.990;2023-11-22T10:48:16;3.60;1.00
52621;DHT22;38515;53.160;6.990;2023-11-22T10:53:47;3.60;99.90
52621;DHT22;38515;53.160;6.990;2023-11-22T10:56:15;3.60;99.90
52621;DHT22;38515;53.160;6.990;2023-11-22T10:58:51;3.60;1.00
52621;DHT22;38515;53.160;6.990;2023-11-22T11:01:23;3.60;99.90
52621;DHT22;38515;53.160;6.990;2023-11-22T11:04:15;3.50;99.90
52621;DHT22;38515;53.160;6.990;2023-11-22T11:06:48;3.50;1.00
52621;DHT22;38515;53.160;6.990;2023-11-22T11:09:18;3.20;1.00
52621;DHT22;38515;53.160;6.990;2023-11-22T11:11:47;3.40;1.00
52621;DHT22;38515;53.160;6.990;2023-11-22T11:14:13;3.60;14.40
52621;DHT22;38515;53.160;6.990;2023-11-22T11:16:42;3.70;99.90
52621;DHT22;38515;53.160;6.990;2023-11-22T11:19:14;3.80;99.90
52621;DHT22;38515;53.160;6.990;2023-11-22T11:21:40;3.90;99.90
52621;DHT22;38515;53.160;6.990;2023-11-22T11:24:06;4.10;1.00
52621;DHT22;38515;53.160;6.990;2023-11-22T11:26:33;4.20;1.00
52621;DHT22;38515;53.160;6.990;2023-11-22T11:29:00;4.40;1.00
52621;DHT22;38515;53.160;6.990;2023-11-22T11:31:31;4.50;99.90
52621;DHT22;38515;53.160;6.990;2023-11-22T11:34:05;4.70;99.90
52621;DHT22;38515;53.160;6.990;2023-11-22T11:36:33;4.90;99.90
52621;DHT22;38515;53.160;6.990;2023-11-22T11:39:02;5.00;99.90
52621;DHT22;38515;53.160;6.990;2023-11-22T11:41:33;5.20;1.00
52621;DHT22;38515;53.160;6.990;2023-11-22T11:44:04;5.20;1.00
52621;DHT22;38515;53.160;6.990;2023-11-22T11:46:33;5.30;99.90
52621;DHT22;38515;53.160;6.990;2023-11-22T11:48:59;5.40;99.90
52621;DHT22;38515;53.160;6.990;2023-11-22T11:51:28;5.50;99.90
52621;DHT22;38515;53.160;6.990;2023-11-22T11:53:55;5.50;1.00
52621;DHT22;38515;53.160;6.990;2023-11-22T11:56:22;5.50;1.00
52621;DHT22;38515;53.160;6.990;2023-11-22T11:58:49;5.60;1.00
52621;DHT22;38515;53.160;6.990;2023-11-22T12:01:17;5.80;99.90
52621;DHT22;38515;53.160;6.990;2023-11-22T12:03:45;5.80;90.70
52621;DHT22;38515;53.160;6.990;2023-11-22T12:06:18;6.00;99.90
52621;DHT22;38515;53.160;6.990;2023-11-22T12:08:47;5.90;83.10
52621;DHT22;38515;53.160;6.990;2023-11-22T12:11:14;6.00;99.90
52621;DHT22;38515;53.160;6.990;2023-11-22T12:13:41;5.80;1.00
52621;DHT22;38515;53.160;6.990;2023-11-22T12:16:14;5.70;99.90
52621;DHT22;38515;53.160;6.990;2023-11-22T12:18:42;5.60;99.90
52621;DHT22;38515;53.160;6.990;2023-11-22T12:21:12;5.50;99.90
52621;DHT22;38515;53.160;6.990;2023-11-22T12:23:41;5.60;1.00
52621;DHT22;38515;53.160;6.990;2023-11-22T12:26:15;5.40;99.90
52621;DHT22;38515;53.160;6.990;2023-11-22T12:28:44;5.30;1.00
52621;DHT22;38515;53.160;6.990;2023-11-22T12:31:12;5.20;99.90
52621;DHT22;38515;53.160;6.990;2023-11-22T12:33:40;5.20;99.90
52621;DHT22;38515;53.160;6.990;2023-11-22T12:36:07;5.10;99.90
52621;DHT22;38515;53.160;6.990;2023-11-22T12:38:35;5.10;99.90
52621;DHT22;38515;53.160;6.990;2023-11-22T12:41:02;5.20;1.00
52621;DHT22;38515;53.160;6.990;2023-11-22T12:43:29;5.20;72.90
52621;DHT22;38515;53.160;6.990;2023-11-22T12:46:04;4.80;99.90
52621;DHT22;38515;53.160;6.990;2023-11-22T12:48:33;5.00;99.90
52621;DHT22;38515;53.160;6.990;2023-11-22T12:51:00;4.90;99.90
52621;DHT22;38515;53.160;6.990;2023-11-22T12:53:26;4.80;99.90
52621;DHT22;38515;53.160;6.990;2023-11-22T12:55:56;4.80;99.90
52621;DHT22;38515;53.160;6.990;2023-11-22T12:58:25;4.90;58.90
52621;DHT22;38515;53.160;6.990;2023-11-22T13:00:55;4.80;1.00
52621;DHT22;38515;53.160;6.990;2023-11-22T13:03:27;4.70;99.90
52621;DHT22;38515;53.160;6.990;2023-11-22T13:05:53;4.70;99.90
52621;DHT22;38515;53.160;6.990;2023-11-22T13:08:19;4.80;99.90
52621;DHT22;38515;53.160;6.990;2023-11-22T13:10:48;4.70;23.40
52621;DHT22;38515;53.160;6.990;2023-11-22T13:13:22;4.70;1.00
52621;DHT22;38515;53.160;6.990;2023-11-22T13:15:48;4.70;1.00
52621;DHT22;38515;53.160;6.990;2023-11-22T13:18:18;4.80;99.90
52621;DHT22;38515;53.160;6.990;2023-11-22T13:20:44;4.80;99.90
52621;DHT22;38515;53.160;6.990;2023-11-22T13:23:11;4.70;99.90
52621;DHT22;38515;53.160;6.990;2023-11-22T13:25:40;4.70;99.90
52621;DHT22;38515;53.160;6.990;2023-11-22T13:28:10;4.80;99.90
52621;DHT22;38515;53.160;6.990;2023-11-22T13:30:35;4.70;99.90
52621;DHT22;38515;53.160;6.990;2023-11-22T13:33:04;4.60;99.90
52621;DHT22;38515;53.160;6.990;2023-11-22T13:36:09;4.60;91.40
52621;DHT22;38515;53.160;6.990;2023-11-22T13:38:36;4.60;55.90
52621;DHT22;38515;53.160;6.990;2023-11-22T13:41:02;4.70;99.90
52621;DHT22;38515;53.160;6.990;2023-11-22T13:43:28;4.60;99.90
52621;DHT22;38515;53.160;6.990;2023-11-22T13:45:54;4.60;6.60
52621;DHT22;38515;53.160;6.990;2023-11-22T13:48:20;4.60;1.30
52621;DHT22;38515;53.160;6.990;2023-11-22T13:50:49;4.50;1.00
52621;DHT22;38515;53.160;6.990;2023-11-22T13:53:15;4.50;1.00
52621;DHT22;38515;53.160;6.990;2023-11-22T13:55:43;4.50;1.00
52621;DHT22;38515;53.160;6.990;2023-11-22T13:58:08;4.50;1.00
52621;DHT22;38515;53.160;6.990;2023-11-22T14:00:34;4.50;1.00
52621;DHT22;38515;53.160;6.990;2023-11-22T14:03:04;4.50;1.00
52621;DHT22;38515;53.160;6.990;2023-11-22T14:05:35;4.50;99.90
52621;DHT22;38515;53.160;6.990;2023-11-22T14:08:03;4.60;99.90
52621;DHT22;38515;53.160;6.990;2023-11-22T14:10:29;4.50;69.90
52621;DHT22;38515;53.160;6.990;2023-11-22T14:12:56;4.50;1.00
52621;DHT22;38515;53.160;6.990;2023-11-22T14:15:26;4.50;1.00
52621;DHT22;38515;53.160;6.990;2023-11-22T14:17:56;4.50;1.00
52621;DHT22;38515;53.160;6.990;2023-11-22T14:20:22;4.50;1.00
52621;DHT22;38515;53.160;6.990;2023-11-22T14:22:50;4.60;99.90
52621;DHT22;38515;53.160;6.990;2023-11-22T14:25:15;4.60;99.90
52621;DHT22;38515;53.160;6.990;2023-11-22T14:27:43;4.50;99.90
52621;DHT22;38515;53.160;6.990;2023-11-22T14:30:11;4.50;99.90
52621;DHT22;38515;53.160;6.990;2023-11-22T14:32:39;4.50;99.90
52621;DHT22;38515;53.160;6.990;2023-11-22T14:35:06;4.50;99.90
52621;DHT22;38515;53.160;6.990;2023-11-22T14:37:38;4.50;99.90
52621;DHT22;38515;53.160;6.990;2023-11-22T14:40:08;4.40;99.90
52621;DHT22;38515;53.160;6.990;2023-11-22T14:43:00;4.60;99.90
52621;DHT22;38515;53.160;6.990;2023-11-22T14:45:28;4.50;99.90
52621;DHT22;38515;53.160;6.990;2023-11-22T14:47:59;4.40;99.90
52621;DHT22;38515;53.160;6.990;2023-11-22T14:50:27;4.40;99.90
52621;DHT22;38515;53.160;6.990;2023-11-22T14:52:54;4.30;99.90
52621;DHT22;38515;53.160;6.990;2023-11-22T14:55:20;4.30;1.00
52621;DHT22;38515;53.160;6.990;2023-11-22T14:57:48;4.20;1.00
52621;DHT22;38515;53.160;6.990;2023-11-22T15:00:18;4.20;1.00
52621;DHT22;38515;53.160;6.990;2023-11-22T15:02:47;4.20;1.00
52621;DHT22;38515;53.160;6.990;2023-11-22T15:05:17;4.30;99.90
52621;DHT22;38515;53.160;6.990;2023-11-22T15:07:43;4.20;99.90
52621;DHT22;38515;53.160;6.990;2023-11-22T15:10:10;4.10;99.90
52621;DHT22;38515;53.160;6.990;2023-11-22T15:12:38;4.10;99.90
52621;DHT22;38515;53.160;6.990;2023-11-22T15:15:06;4.10;99.90
52621;DHT22;38515;53.160;6.990;2023-11-22T15:17:33;4.10;1.00
52621;DHT22;38515;53.160;6.990;2023-11-22T15:20:01;4.10;99.90
52621;DHT22;38515;53.160;6.990;2023-11-22T15:22:27;4.00;99.90
52621;DHT22;38515;53.160;6.990;2023-11-22T15:24:55;4.00;99.90
52621;DHT22;38515;53.160;6.990;2023-11-22T15:27:21;4.00;99.90
52621;DHT22;38515;53.160;6.990;2023-11-22T15:29:47;4.00;99.90
52621;DHT22;38515;53.160;6.990;2023-11-22T15:32:13;3.90;99.90
52621;DHT22;38515;53.160;6.990;2023-11-22T15:34:39;3.90;99.90
52621;DHT22;38515;53.160;6.990;2023-11-22T15:37:05;3.90;99.90
52621;DHT22;38515;53.160;6.990;2023-11-22T15:39:31;4.00;99.90
52621;DHT22;38515;53.160;6.990;2023-11-22T15:41:57;3.90;99.90
52621;DHT22;38515;53.160;6.990;2023-11-22T15:44:24;3.90;99.90
52621;DHT22;38515;53.160;6.990;2023-11-22T15:46:49;5.30;1.00
52621;DHT22;38515;53.160;6.990;2023-11-22T15:49:15;3.90;1.00
52621;DHT22;38515;53.160;6.990;2023-11-22T15:51:41;4.00;6.00
52621;DHT22;38515;53.160;6.990;2023-11-22T15:54:07;4.00;99.90
52621;DHT22;38515;53.160;6.990;2023-11-22T15:56:33;4.00;99.90
52621;DHT22;38515;53.160;6.990;2023-11-22T15:58:59;4.00;1.00